Time;durP1;ratioP1;P1;durP2;ratioP2;P2;SDS_P1;SDS_P2;PMS_P1;PMS_P2;Temp;Humidity;BMP_temperature;BMP_pressure;BME280_temperature;BME280_humidity;BME280_pressure;Samples;Min_cycle;Max_cycle;Signal;HPM_P1;HPM_P2
2021/12/05 00:22:39;;;;;;;1.67;1.58;;;3.30;99.90;;;;;;5074445;28;20257;-85
2021/12/05 00:25:10;;;;;;;2.58;1.60;;;3.40;99.90;;;;;;5076059;28;20202;-85
2021/12/05 00:27:42;;;;;;;2.70;1.67;;;;;;;;;;5077371;28;20778;-85
2021/12/05 00:30:27;;;;;;;1.60;1.50;;;;;;;;;;5077947;28;20274;-85
2021/12/05 00:33:08;;;;;;;5.68;1.70;;;;;;;;;;5075058;28;20206;-85
2021/12/05 00:36:23;;;;;;;1.50;1.40;;;;;;;;;;5077883;28;20240;-85
2021/12/05 00:45:13;;;;;;;4.10;1.88;;;;;;;;;;5017512;28;20223;-85
2021/12/05 00:56:07;;;;;;;2.15;1.58;;;;;;;;;;5082289;28;20213;-85
2021/12/05 01:09:38;;;;;;;2.63;2.42;;;;;;;;;;5075957;28;20236;-85
2021/12/05 01:15:03;;;;;;;3.40;2.88;;;;;;;;;;5071237;28;20210;-85
2021/12/05 01:17:36;;;;;;;2.35;2.15;;;;;;;;;;5079606;28;20642;-85
2021/12/05 01:20:08;;;;;;;2.30;2.10;;;;;;;;;;5082467;28;20201;-85
2021/12/05 01:22:41;;;;;;;2.42;2.03;;;;;;;;;;5078971;28;20285;-85
2021/12/05 01:25:19;;;;;;;3.58;2.05;;;;;;;;;;5082937;28;20232;-85
2021/12/05 01:27:52;;;;;;;4.47;2.80;;;;;;;;;;5076315;28;20599;-86
2021/12/05 01:30:28;;;;;;;2.00;1.80;;;;;;;;;;5078356;28;20258;-86
2021/12/05 01:33:03;;;;;;;2.15;1.73;;;;;;;;;;5078114;28;20199;-85
2021/12/05 01:35:48;;;;;;;6.35;1.95;;;;;;;;;;5080645;28;20547;-85
2021/12/05 01:38:26;;;;;;;4.68;1.80;;;3.50;99.90;;;;;;5073830;28;20212;-85
2021/12/05 01:44:13;;;;;;;8.50;2.10;;;;;;;;;;5078180;28;20299;-85
2021/12/05 01:52:28;;;;;;;1.40;1.30;;;3.40;99.90;;;;;;5030832;28;20254;-85
2021/12/05 01:57:55;;;;;;;3.70;1.88;;;;;;;;;;5071470;28;20200;-85
2021/12/05 02:00:56;;;;;;;2.15;1.95;;;;;;;;;;5079529;28;20670;-85
2021/12/05 02:09:26;;;;;;;1.63;1.27;;;;;;;;;;5082504;28;20231;-84
2021/12/05 02:12:08;;;;;;;1.73;1.08;;;3.40;99.90;;;;;;5080296;28;20285;-84
2021/12/05 02:31:42;;;;;;;1.00;1.00;;;;;;;;;;5080225;28;20210;-85
2021/12/05 02:37:07;;;;;;;1.52;1.42;;;3.40;99.90;;;;;;5079866;28;20204;-83
2021/12/05 02:42:21;;;;;;;2.25;1.88;;;;;;;;;;5077948;28;20220;-83
2021/12/05 02:44:49;;;;;;;5.88;2.00;;;;;;;;;;5079513;28;20217;-83
2021/12/05 02:47:20;;;;;;;2.45;1.52;;;3.00;99.90;;;;;;5080029;28;20269;-83
2021/12/05 02:49:50;;;;;;;1.33;1.23;;;3.10;99.90;;;;;;5079181;28;20239;-83
2021/12/05 02:52:27;;;;;;;1.20;1.10;;;3.00;99.90;;;;;;5080560;28;20300;-84
2021/12/05 02:54:55;;;;;;;1.90;1.55;;;;;;;;;;5080312;28;20235;-83
2021/12/05 02:57:35;;;;;;;1.40;1.30;;;;;;;;;;5078495;28;20208;-83
2021/12/05 03:00:08;;;;;;;2.70;1.65;;;;;;;;;;5084052;28;20197;-83
2021/12/05 03:02:41;;;;;;;1.10;1.10;;;;;;;;;;5077101;28;20692;-83
2021/12/05 03:05:13;;;;;;;2.80;1.60;;;3.20;99.90;;;;;;5076292;28;20189;-84
2021/12/05 03:07:46;;;;;;;1.90;1.50;;;;;;;;;;5080208;28;20661;-84
2021/12/05 03:10:16;;;;;;;8.48;1.83;;;3.00;99.90;;;;;;5076665;28;22422;-84
2021/12/05 03:12:45;;;;;;;2.00;1.23;;;;;;;;;;5079127;28;20214;-84
2021/12/05 03:15:14;;;;;;;1.60;1.10;;;3.00;99.90;;;;;;5080294;28;20287;-84
2021/12/05 03:17:42;;;;;;;5.13;1.70;;;;;;;;;;5078352;28;20232;-84
2021/12/05 03:20:11;;;;;;;3.50;1.75;;;3.30;99.90;;;;;;5081157;28;20857;-84
2021/12/05 03:22:38;;;;;;;5.13;2.05;;;;;;;;;;5078521;28;20950;-84
2021/12/05 03:25:07;;;;;;;1.33;1.20;;;;;;;;;;5079367;28;20241;-84
2021/12/05 03:27:35;;;;;;;1.45;1.35;;;;;;;;;;5079448;28;20750;-84
2021/12/05 03:30:02;;;;;;;5.97;1.85;;;;;;;;;;5086400;28;20248;-84
2021/12/05 03:32:29;;;;;;;2.08;1.67;;;;;;;;;;5079290;28;20295;-84
2021/12/05 03:34:57;;;;;;;1.88;1.20;;;;;;;;;;5084604;28;20705;-84
2021/12/05 03:37:24;;;;;;;2.22;1.83;;;;;;;;;;5086773;28;20205;-84
2021/12/05 03:39:51;;;;;;;2.63;1.30;;;;;;;;;;5076675;28;20248;-84
2021/12/05 03:42:19;;;;;;;2.90;1.90;;;;;;;;;;5079695;28;20198;-84
2021/12/05 03:44:47;;;;;;;2.38;1.73;;;;;;;;;;5080271;28;20242;-84
2021/12/05 03:47:14;;;;;;;1.63;1.42;;;;;;;;;;5078700;28;20298;-84
2021/12/05 03:49:41;;;;;;;2.65;1.60;;;;;;;;;;5085612;28;20235;-84
2021/12/05 03:52:12;;;;;;;1.85;1.50;;;3.00;99.90;;;;;;5084137;28;20252;-84
2021/12/05 03:54:39;;;;;;;3.40;1.60;;;;;;;;;;5079431;28;20214;-84
2021/12/05 03:57:07;;;;;;;4.05;1.83;;;2.90;99.90;;;;;;5081883;28;20206;-84
2021/12/05 03:59:36;;;;;;;1.60;1.50;;;;;;;;;;5083534;28;20296;-84
2021/12/05 04:02:06;;;;;;;1.70;1.60;;;2.90;99.90;;;;;;5082306;28;20234;-84
2021/12/05 04:04:33;;;;;;;1.48;1.35;;;;;;;;;;5079438;28;20224;-84
2021/12/05 04:07:01;;;;;;;2.38;1.63;;;3.00;99.90;;;;;;5080991;28;20200;-84
2021/12/05 04:09:28;;;;;;;1.35;1.05;;;;;;;;;;5081553;28;20251;-84
2021/12/05 04:11:59;;;;;;;4.07;1.70;;;3.00;99.90;;;;;;5078234;28;20205;-84
2021/12/05 04:14:28;;;;;;;1.77;1.50;;;3.10;99.90;;;;;;5080849;28;20209;-84
2021/12/05 04:16:58;;;;;;;1.60;1.50;;;;;;;;;;5078389;28;20220;-84
2021/12/05 04:19:26;;;;;;;4.97;1.83;;;;;;;;;;5078647;28;20216;-84
2021/12/05 04:21:53;;;;;;;2.97;1.77;;;;;;;;;;5083304;28;20201;-84
2021/12/05 04:24:22;;;;;;;2.35;1.35;;;;;;;;;;5077882;28;20204;-84
2021/12/05 04:26:49;;;;;;;1.63;1.52;;;;;;;;;;5078599;28;20209;-84
2021/12/05 04:29:16;;;;;;;2.00;1.25;;;3.10;99.90;;;;;;5083288;28;20315;-84
2021/12/05 04:31:44;;;;;;;5.03;1.85;;;;;;;;;;5085687;28;20323;-84
2021/12/05 04:34:12;;;;;;;4.30;1.80;;;;;;;;;;5079350;28;20225;-84
2021/12/05 04:36:40;;;;;;;2.00;1.30;;;3.20;99.90;;;;;;5078115;28;20236;-84
2021/12/05 04:39:08;;;;;;;3.55;1.38;;;;;;;;;;5080580;28;20311;-85
2021/12/05 04:41:35;;;;;;;3.92;1.50;;;3.20;99.90;;;;;;5077580;28;20197;-85
2021/12/05 04:44:03;;;;;;;1.75;1.45;;;;;;;;;;5079941;28;20202;-85
2021/12/05 04:46:31;;;;;;;1.60;1.20;;;3.20;99.90;;;;;;5082724;28;20544;-85
2021/12/05 04:48:58;;;;;;;4.07;1.35;;;;;;;;;;5080590;28;20532;-85
2021/12/05 04:51:28;;;;;;;1.55;1.30;;;;;;;;;;5077261;28;20255;-84
2021/12/05 04:53:57;;;;;;;1.25;1.15;;;3.10;99.90;;;;;;5084502;28;20301;-84
2021/12/05 04:56:24;;;;;;;1.42;1.20;;;3.00;99.90;;;;;;5082147;28;20262;-85
2021/12/05 04:58:53;;;;;;;2.22;1.20;;;2.90;99.90;;;;;;5081561;28;20279;-85
2021/12/05 05:01:21;;;;;;;2.50;1.50;;;;;;;;;;5086702;28;20247;-85
2021/12/05 05:03:48;;;;;;;1.67;1.10;;;;;;;;;;5078656;28;20266;-85
2021/12/05 05:06:18;;;;;;;1.38;1.27;;;;;;;;;;5077382;28;20669;-85
2021/12/05 05:08:50;;;;;;;4.28;1.52;;;2.60;99.90;;;;;;5076964;28;20301;-85
2021/12/05 05:11:18;;;;;;;1.27;1.17;;;2.60;99.90;;;;;;5072768;28;20286;-85
2021/12/05 05:13:46;;;;;;;1.08;1.00;;;;;;;;;;5077931;28;20306;-84
2021/12/05 05:16:15;;;;;;;2.22;1.33;;;;;;;;;;5082387;28;20196;-85
2021/12/05 05:18:46;;;;;;;2.05;1.42;;;2.60;99.90;;;;;;5080553;28;20582;-85
2021/12/05 05:21:26;;;;;;;2.13;1.10;;;;;;;;;;5081298;28;20214;-85
2021/12/05 05:24:18;;;;;;;3.80;1.23;;;;;;;;;;5081564;28;20217;-85
2021/12/05 05:41:05;;;;;;;2.05;1.38;;;;;;;;;;5080502;28;20316;-84
2021/12/05 05:43:42;;;;;;;3.38;1.90;;;;;;;;;;5074899;28;20203;-85
2021/12/05 05:46:13;;;;;;;1.42;1.33;;;;;;;;;;5078815;28;20280;-85
2021/12/05 05:48:49;;;;;;;1.67;1.20;;;2.70;99.90;;;;;;5072886;28;20996;-85
2021/12/05 05:51:16;;;;;;;2.00;1.50;;;;;;;;;;5077459;28;20247;-85
2021/12/05 05:53:47;;;;;;;1.75;1.60;;;;;;;;;;5079202;28;20212;-84
2021/12/05 05:56:19;;;;;;;2.50;1.52;;;2.20;99.90;;;;;;5076038;28;20611;-85
2021/12/05 05:58:49;;;;;;;2.00;1.30;;;;;;;;;;5079451;28;20199;-85
2021/12/05 06:01:22;;;;;;;2.65;1.23;;;;;;;;;;5078770;28;20291;-85
2021/12/05 06:03:49;;;;;;;3.70;1.20;;;2.30;99.90;;;;;;5068908;28;20206;-85
2021/12/05 06:06:17;;;;;;;3.97;1.55;;;2.30;99.90;;;;;;5070911;28;20228;-84
2021/12/05 06:08:45;;;;;;;1.58;1.45;;;;;;;;;;5081695;28;20208;-85
2021/12/05 06:11:16;;;;;;;2.45;1.35;;;2.40;99.90;;;;;;5078562;28;20234;-84
2021/12/05 06:13:44;;;;;;;2.85;1.38;;;;;;;;;;5077292;28;20212;-85
2021/12/05 06:16:13;;;;;;;1.60;1.50;;;2.30;99.90;;;;;;5082748;28;20634;-84
2021/12/05 06:18:40;;;;;;;1.70;1.02;;;;;;;;;;5080914;28;20239;-84
2021/12/05 06:21:08;;;;;;;1.40;0.80;;;;;;;;;;5078163;28;20298;-84
2021/12/05 06:23:35;;;;;;;1.60;1.45;;;;;;;;;;5076396;28;20282;-85
2021/12/05 06:26:03;;;;;;;2.90;1.15;;;;;;;;;;5081359;28;20684;-84
2021/12/05 06:28:33;;;;;;;1.05;0.90;;;;;;;;;;5073567;28;20666;-84
2021/12/05 06:31:13;;;;;;;1.90;1.40;;;;;;;;;;5082383;28;20232;-84
2021/12/05 06:42:06;;;;;;;2.10;1.48;;;2.10;99.90;;;;;;5078560;28;20552;-83
2021/12/05 06:47:24;;;;;;;1.85;1.70;;;;;;;;;;5078953;28;20850;-83
2021/12/05 06:49:51;;;;;;;4.22;1.95;;;;;;;;;;5080644;28;20686;-83
2021/12/05 06:52:19;;;;;;;2.85;1.50;;;;;;;;;;5076964;28;20659;-83
2021/12/05 06:54:46;;;;;;;1.88;1.48;;;;;;;;;;5076617;28;20793;-84
2021/12/05 06:57:13;;;;;;;1.10;1.00;;;;;;;;;;5079521;28;20300;-84
2021/12/05 06:59:45;;;;;;;1.63;1.08;;;1.90;99.90;;;;;;5080425;28;20283;-83
2021/12/05 07:02:12;;;;;;;4.28;1.17;;;;;;;;;;5076795;28;20201;-83
2021/12/05 07:05:01;;;;;;;2.00;1.38;;;;;;;;;;5077660;28;20244;-83
2021/12/05 07:07:32;;;;;;;0.88;0.88;;;;;;;;;;5078075;28;20200;-83
2021/12/05 07:10:00;;;;;;;1.75;1.30;;;;;;;;;;5079185;28;20242;-83
2021/12/05 07:15:17;;;;;;;3.80;1.40;;;;;;;;;;5077946;28;20872;-83
2021/12/05 07:20:46;;;;;;;2.33;1.50;;;;;;;;;;5075515;28;20578;-83
2021/12/05 07:23:24;;;;;;;1.17;1.10;;;;;;;;;;5075749;28;20741;-83
2021/12/05 07:26:04;;;;;;;1.65;1.55;;;;;;;;;;5080248;28;20199;-83
2021/12/05 07:42:22;;;;;;;1.40;1.30;;;;;;;;;;5076503;28;20269;-83
2021/12/05 07:44:50;;;;;;;1.52;1.40;;;;;;;;;;5080297;28;20250;-83
2021/12/05 07:47:20;;;;;;;1.30;1.20;;;;;;;;;;5078145;28;20204;-83
2021/12/05 07:49:48;;;;;;;4.30;1.90;;;;;;;;;;5081190;28;21129;-83
2021/12/05 07:52:20;;;;;;;2.20;1.90;;;;;;;;;;5067486;28;20215;-83
2021/12/05 07:54:53;;;;;;;4.32;2.13;;;;;;;;;;5075838;28;20195;-83
2021/12/05 07:57:29;;;;;;;3.50;2.40;;;;;;;;;;5075701;28;20760;-82
2021/12/05 08:00:08;;;;;;;6.78;3.33;;;;;;;;;;5081580;28;20204;-83
2021/12/05 08:16:27;;;;;;;3.63;2.50;;;;;;;;;;5080277;28;20735;-84
2021/12/05 08:18:56;;;;;;;1.98;1.50;;;;;;;;;;5080374;28;20204;-83
2021/12/05 08:21:23;;;;;;;2.55;2.13;;;;;;;;;;5075621;28;20293;-84
2021/12/05 08:23:50;;;;;;;2.50;2.08;;;;;;;;;;5082841;28;20601;-84
2021/12/05 08:26:19;;;;;;;3.13;2.88;;;;;;;;;;5075909;28;20207;-83
2021/12/05 08:28:59;;;;;;;1.90;1.80;;;2.30;99.90;;;;;;5085138;28;20200;-84
2021/12/05 08:31:35;;;;;;;3.40;2.38;;;2.50;99.90;;;;;;5079414;28;20702;-84
2021/12/05 08:34:19;;;;;;;3.88;1.73;;;;;;;;;;5086908;28;20193;-84
2021/12/05 08:40:12;;;;;;;5.05;2.22;;;;;;;;;;5073779;28;20756;-84
2021/12/05 08:45:57;;;;;;;4.72;2.67;;;;;;;;;;5075342;28;20742;-84
2021/12/05 09:30:12;;;;;;;1.52;1.02;;;;;;;;;;5080898;28;20228;-85
2021/12/05 09:53:25;;;;;;;1.05;1.02;;;;;;;;;;5083698;28;20203;-86
2021/12/05 10:03:36;;;;;;;2.42;1.80;;;;;;;;;;5079730;28;20300;-86
2021/12/05 10:08:54;;;;;;;1.13;1.00;;;;;;;;;;5077923;28;20353;-86
2021/12/05 10:11:32;;;;;;;1.55;0.93;;;;;;;;;;5077747;28;20815;-86
2021/12/05 10:14:30;;;;;;;1.48;1.30;;;;;;;;;;5068459;28;20209;-86
2021/12/05 10:17:32;;;;;;;3.25;2.17;;;;;;;;;;5078999;28;20672;-86
2021/12/05 10:20:23;;;;;;;2.47;1.50;;;;;;;;;;5075185;28;20220;-85
2021/12/05 10:33:54;;;;;;;1.13;1.05;;;4.70;99.90;;;;;;5078971;28;20215;-85
2021/12/05 10:36:25;;;;;;;2.53;1.33;;;;;;;;;;5078691;28;20203;-85
2021/12/05 10:38:59;;;;;;;1.20;1.10;;;4.60;99.90;;;;;;5076179;28;20224;-85
2021/12/05 10:44:17;;;;;;;2.22;1.23;;;;;;;;;;5065843;28;20217;-86
2021/12/05 10:46:50;;;;;;;1.05;0.90;;;;;;;;;;5068300;28;20279;-85
2021/12/05 10:49:18;;;;;;;1.35;1.10;;;4.60;99.90;;;;;;5076986;28;20216;-86
2021/12/05 10:51:48;;;;;;;0.93;0.93;;;4.70;99.90;;;;;;5076001;28;20269;-85
2021/12/05 10:54:17;;;;;;;1.27;1.20;;;;;;;;;;5078874;28;20205;-85
2021/12/05 10:56:47;;;;;;;1.55;0.98;;;4.70;99.90;;;;;;5078665;28;20298;-85
2021/12/05 10:59:17;;;;;;;1.30;0.95;;;4.70;99.90;;;;;;5079351;28;20756;-85
2021/12/05 11:01:50;;;;;;;1.60;1.20;;;4.80;99.90;;;;;;5076864;28;20212;-85
2021/12/05 11:04:18;;;;;;;0.85;0.80;;;;;;;;;;5079731;28;20214;-85
2021/12/05 11:06:50;;;;;;;0.77;0.77;;;;;;;;;;5076182;28;20684;-85
2021/12/05 11:09:20;;;;;;;5.47;1.00;;;5.10;99.90;;;;;;5075643;28;20758;-85
2021/12/05 11:11:50;;;;;;;2.00;0.90;;;5.10;99.90;;;;;;5078855;28;20261;-85
2021/12/05 11:14:18;;;;;;;1.80;0.80;;;;;;;;;;5078550;28;20360;-85
2021/12/05 11:16:51;;;;;;;2.20;1.10;;;4.80;99.90;;;;;;5079218;28;20263;-85
2021/12/05 11:19:21;;;;;;;0.60;0.60;;;;;;;;;;5067491;28;20711;-86
2021/12/05 11:21:53;;;;;;;0.93;0.90;;;5.00;99.90;;;;;;5067927;28;20226;-85
2021/12/05 11:24:22;;;;;;;1.42;1.05;;;;;;;;;;5067875;28;20283;-85
2021/12/05 11:27:26;;;;;;;0.90;0.88;;;5.10;99.90;;;;;;5076222;28;20272;-85
2021/12/05 11:30:09;;;;;;;1.45;0.93;;;;;;;;;;5075795;28;20779;-86
2021/12/05 11:32:39;;;;;;;1.50;0.82;;;;;;;;;;5079211;28;20217;-86
2021/12/05 11:35:27;;;;;;;1.30;1.23;;;;;;;;;;5081834;28;20207;-85
2021/12/05 11:38:05;;;;;;;2.47;1.20;;;5.30;99.90;;;;;;5071104;28;20311;-84
2021/12/05 11:40:49;;;;;;;2.30;1.40;;;5.10;99.90;;;;;;5071648;28;20199;-85
2021/12/05 11:43:18;;;;;;;1.02;1.02;;;;;;;;;;5079371;28;20945;-84
2021/12/05 11:45:57;;;;;;;0.85;0.85;;;5.60;99.90;;;;;;5083850;28;20203;-85
2021/12/05 11:48:27;;;;;;;0.65;0.50;;;5.50;99.90;;;;;;5076573;28;20204;-85
2021/12/05 11:50:55;;;;;;;1.25;1.15;;;;;;;;;;5087672;28;20255;-85
2021/12/05 11:53:35;;;;;;;1.33;1.00;;;;;;;;;;5079272;28;20723;-84
2021/12/05 11:56:02;;;;;;;0.80;0.55;;;;;;;;;;5086286;28;20202;-85
2021/12/05 11:58:29;;;;;;;1.27;0.95;;;;;;;;;;5078757;28;20269;-84
2021/12/05 12:01:02;;;;;;;2.25;0.80;;;;;;;;;;5084011;28;20319;-85
2021/12/05 12:03:38;;;;;;;1.88;0.85;;;5.30;99.90;;;;;;5081236;28;20208;-84
2021/12/05 12:06:09;;;;;;;2.10;1.27;;;5.20;99.90;;;;;;5079349;28;20562;-84
2021/12/05 12:08:36;;;;;;;1.42;0.60;;;;;;;;;;5080882;28;20214;-83
2021/12/05 12:11:04;;;;;;;1.15;1.05;;;;;;;;;;5080457;28;20280;-84
2021/12/05 12:13:35;;;;;;;1.20;1.10;;;4.60;99.90;;;;;;5081775;28;20753;-84
2021/12/05 12:16:07;;;;;;;1.27;0.90;;;4.80;99.90;;;;;;5078387;28;20226;-85
2021/12/05 12:18:40;;;;;;;1.05;0.90;;;4.60;99.90;;;;;;5081069;28;20201;-85
2021/12/05 12:21:12;;;;;;;2.25;1.05;;;4.80;99.90;;;;;;5082269;28;20214;-85
2021/12/05 12:23:39;;;;;;;2.58;1.40;;;;;;;;;;5069816;28;20235;-84
2021/12/05 12:26:09;;;;;;;2.72;1.23;;;;;;;;;;5070913;28;20680;-84
2021/12/05 12:28:37;;;;;;;3.50;1.25;;;;;;;;;;5077095;28;20231;-85
2021/12/05 12:31:07;;;;;;;1.95;0.95;;;4.80;99.90;;;;;;5079785;28;20254;-85
2021/12/05 12:33:40;;;;;;;0.95;0.95;;;4.90;99.90;;;;;;5082010;28;20658;-84
2021/12/05 12:36:08;;;;;;;1.60;1.27;;;;;;;;;;5067333;28;20288;-84
2021/12/05 12:38:38;;;;;;;0.93;0.93;;;4.80;99.90;;;;;;5080843;28;20209;-84
2021/12/05 12:41:13;;;;;;;1.25;0.90;;;4.90;99.90;;;;;;5078632;28;20209;-84
2021/12/05 12:43:44;;;;;;;1.38;1.25;;;5.00;99.90;;;;;;5080825;28;20235;-84
2021/12/05 12:46:37;;;;;;;0.80;0.80;;;5.10;99.90;;;;;;5080939;28;20215;-84
2021/12/05 12:49:25;;;;;;;1.08;1.00;;;5.30;99.90;;;;;;5079883;28;20225;-84
2021/12/05 12:51:56;;;;;;;1.20;0.82;;;5.40;99.90;;;;;;5072685;28;20762;-85
2021/12/05 12:54:27;;;;;;;0.80;0.70;;;;;;;;;;5080737;28;20275;-84
2021/12/05 12:57:05;;;;;;;1.23;0.60;;;5.70;99.90;;;;;;5079103;28;21278;-83
2021/12/05 12:59:35;;;;;;;1.77;0.60;;;5.80;99.90;;;;;;5080533;28;20206;-85
2021/12/05 13:05:05;;;;;;;1.50;0.75;;;5.60;99.90;;;;;;5078408;28;20204;-85
2021/12/05 13:10:21;;;;;;;0.73;0.73;;;;;;;;;;5083263;28;20302;-84
2021/12/05 13:12:55;;;;;;;0.95;0.70;;;5.40;99.90;;;;;;5080611;28;20237;-85
2021/12/05 13:15:28;;;;;;;1.48;0.60;;;;;;;;;;5081154;28;20206;-84
2021/12/05 13:17:56;;;;;;;0.63;0.63;;;;;;;;;;5079260;28;20210;-85
2021/12/05 13:20:47;;;;;;;1.38;1.00;;;;;;;;;;5079195;28;20624;-85
2021/12/05 13:23:15;;;;;;;1.27;0.95;;;5.20;99.90;;;;;;5082264;28;20206;-85
2021/12/05 13:25:57;;;;;;;0.50;0.50;;;;;;;;;;5080936;28;20234;-85
2021/12/05 13:28:28;;;;;;;0.85;0.85;;;;;;;;;;5080678;28;20203;-85
2021/12/05 13:30:55;;;;;;;2.47;1.23;;;;;;;;;;5075114;28;20575;-85
2021/12/05 13:33:25;;;;;;;1.92;1.00;;;4.90;99.90;;;;;;5083187;28;20210;-85
2021/12/05 13:35:58;;;;;;;3.17;1.15;;;;;;;;;;5086701;28;20207;-85
2021/12/05 13:38:33;;;;;;;0.98;0.85;;;;;;;;;;5085977;28;20206;-85
2021/12/05 13:41:14;;;;;;;0.65;0.60;;;;;;;;;;5083511;28;20201;-84
2021/12/05 13:43:41;;;;;;;1.52;1.15;;;;;;;;;;5081260;28;20227;-84
2021/12/05 13:46:31;;;;;;;0.90;0.70;;;;;;;;;;5080603;28;20282;-84
2021/12/05 13:48:58;;;;;;;1.25;1.15;;;;;;;;;;5077533;28;20637;-84
2021/12/05 13:51:27;;;;;;;0.80;0.80;;;;;;;;;;5082879;28;20227;-84
2021/12/05 13:53:59;;;;;;;0.90;0.90;;;4.50;99.90;;;;;;5080940;28;20234;-85
2021/12/05 13:56:27;;;;;;;1.00;0.90;;;;;;;;;;5081677;28;20207;-85
2021/12/05 13:59:04;;;;;;;1.17;0.95;;;4.40;99.90;;;;;;5080742;28;20206;-85
2021/12/05 14:01:33;;;;;;;1.50;1.20;;;;;;;;;;5080927;28;20651;-84
2021/12/05 14:04:09;;;;;;;1.23;1.15;;;4.40;99.90;;;;;;5078400;28;20336;-84
2021/12/05 14:06:58;;;;;;;1.98;1.10;;;4.40;99.90;;;;;;5076990;28;20211;-84
2021/12/05 14:09:37;;;;;;;1.30;1.10;;;;;;;;;;5082947;28;20749;-85
2021/12/05 14:12:08;;;;;;;1.42;1.33;;;4.60;99.90;;;;;;5076797;28;20778;-84
2021/12/05 14:14:38;;;;;;;1.77;1.55;;;4.60;99.90;;;;;;5076366;28;20291;-84
2021/12/05 14:17:07;;;;;;;1.55;1.45;;;;;;;;;;5081085;28;20208;-85
2021/12/05 14:19:36;;;;;;;2.25;1.30;;;;;;;;;;5084244;28;20199;-85
2021/12/05 14:22:07;;;;;;;1.55;1.45;;;4.70;99.90;;;;;;5083765;28;20282;-85
2021/12/05 14:24:37;;;;;;;2.33;1.75;;;4.70;99.90;;;;;;5079578;28;20243;-85
2021/12/05 14:27:07;;;;;;;2.35;1.50;;;4.80;99.90;;;;;;5080131;28;20895;-85
2021/12/05 14:29:39;;;;;;;3.13;2.50;;;4.80;99.90;;;;;;5076877;28;20246;-85
2021/12/05 14:32:11;;;;;;;5.63;2.42;;;;;;;;;;5076103;28;20244;-84
2021/12/05 14:34:39;;;;;;;1.98;1.75;;;;;;;;;;5077967;28;20203;-85
2021/12/05 14:37:09;;;;;;;2.75;2.00;;;;;;;;;;5076202;28;20203;-85
2021/12/05 14:39:38;;;;;;;3.75;2.10;;;4.80;99.90;;;;;;5079887;28;20234;-85
2021/12/05 14:42:07;;;;;;;2.53;2.17;;;;;;;;;;5075540;28;20260;-85
2021/12/05 14:44:35;;;;;;;2.90;1.40;;;;;;;;;;5078022;28;20206;-84
2021/12/05 14:47:04;;;;;;;3.55;2.40;;;;;;;;;;5079159;28;20207;-84
2021/12/05 14:49:34;;;;;;;3.83;2.90;;;;;;;;;;5082108;28;20227;-85
2021/12/05 14:52:02;;;;;;;2.17;1.98;;;;;;;;;;5077234;28;20703;-85
2021/12/05 14:54:34;;;;;;;1.50;1.40;;;4.50;99.90;;;;;;5080373;28;20256;-85
2021/12/05 14:57:06;;;;;;;1.80;1.60;;;4.50;99.90;;;;;;5075608;28;20276;-85
2021/12/05 14:59:34;;;;;;;3.28;1.92;;;;;;;;;;5082099;28;20222;-84
2021/12/05 15:02:01;;;;;;;2.63;2.38;;;;;;;;;;5077817;28;20192;-84
2021/12/05 15:04:31;;;;;;;4.32;1.95;;;4.30;99.90;;;;;;5078208;28;20255;-84
2021/12/05 15:06:59;;;;;;;2.20;2.00;;;4.10;99.90;;;;;;5080570;28;20256;-85
2021/12/05 15:09:30;;;;;;;3.03;2.03;;;4.20;99.90;;;;;;5081980;28;20964;-84
2021/12/05 15:12:02;;;;;;;2.33;2.10;;;4.10;99.90;;;;;;5082057;28;20234;-85
2021/12/05 15:14:30;;;;;;;2.38;1.98;;;4.10;99.90;;;;;;5082781;28;20679;-85
2021/12/05 15:17:00;;;;;;;1.90;1.80;;;;;;;;;;5078980;28;20207;-84
2021/12/05 15:19:27;;;;;;;3.40;1.77;;;;;;;;;;5076536;28;20230;-85
2021/12/05 15:21:55;;;;;;;3.03;2.33;;;;;;;;;;5079782;28;20299;-84
2021/12/05 15:24:25;;;;;;;3.55;2.47;;;;;;;;;;5078295;28;20285;-84
2021/12/05 15:26:53;;;;;;;4.47;2.78;;;;;;;;;;5082336;28;20207;-85
2021/12/05 15:29:22;;;;;;;3.47;2.50;;;4.00;99.90;;;;;;5080299;28;20259;-84
2021/12/05 15:31:50;;;;;;;4.95;4.00;;;;;;;;;;5086460;28;20234;-85
2021/12/05 15:34:21;;;;;;;4.43;3.35;;;;;;;;;;5084448;28;20594;-85
2021/12/05 15:36:49;;;;;;;2.67;2.45;;;3.70;99.90;;;;;;5081931;28;20253;-85
2021/12/05 15:39:21;;;;;;;6.45;3.22;;;3.90;99.90;;;;;;5082896;28;20214;-85
2021/12/05 15:41:49;;;;;;;3.75;3.00;;;3.80;99.90;;;;;;5082204;28;20203;-85
2021/12/05 15:44:35;;;;;;;6.00;5.25;;;3.90;99.90;;;;;;5083694;28;20274;-85
2021/12/05 15:47:09;;;;;;;8.73;6.57;;;3.70;99.90;;;;;;5082576;28;20252;-85
2021/12/05 15:49:47;;;;;;;9.90;5.20;;;;;;;;;;5085196;28;20306;-85
2021/12/05 15:52:14;;;;;;;5.10;4.72;;;;;;;;;;5080653;28;20712;-85
2021/12/05 15:54:44;;;;;;;4.95;4.45;;;3.80;99.90;;;;;;5084389;28;20194;-85
2021/12/05 15:57:15;;;;;;;3.83;3.33;;;3.70;99.90;;;;;;5083298;28;20236;-85
2021/12/05 15:59:46;;;;;;;5.70;5.15;;;4.00;99.90;;;;;;5083961;28;20240;-84
2021/12/05 16:02:17;;;;;;;6.93;5.03;;;3.40;99.90;;;;;;5081160;28;20205;-84
2021/12/05 16:04:44;;;;;;;5.63;5.13;;;;;;;;;;5081672;28;20209;-85
2021/12/05 16:07:12;;;;;;;5.63;4.40;;;;;;;;;;5079607;28;20206;-84
2021/12/05 16:09:42;;;;;;;5.68;4.90;;;3.50;99.90;;;;;;5083094;28;20348;-84
2021/12/05 16:12:12;;;;;;;8.65;5.50;;;3.50;99.90;;;;;;5081556;28;20230;-84
2021/12/05 16:14:43;;;;;;;5.43;4.95;;;3.40;99.90;;;;;;5084582;28;20204;-84
2021/12/05 16:17:33;;;;;;;6.60;5.30;;;3.40;99.90;;;;;;5081360;28;20203;-84
2021/12/05 16:20:20;;;;;;;4.63;4.00;;;3.40;99.90;;;;;;5077629;28;20291;-84
2021/12/05 16:22:57;;;;;;;6.10;4.00;;;;;;;;;;5082370;28;20209;-84
2021/12/05 16:25:24;;;;;;;2.92;2.72;;;;;;;;;;5082252;28;20197;-84
2021/12/05 16:27:53;;;;;;;4.32;2.40;;;3.40;99.90;;;;;;5082019;28;20229;-83
2021/12/05 16:30:24;;;;;;;3.15;2.90;;;3.50;99.90;;;;;;5086864;28;20240;-85
2021/12/05 16:32:53;;;;;;;2.83;2.55;;;;;;;;;;5080454;28;20262;-85
2021/12/05 16:35:28;;;;;;;3.22;2.13;;;;;;;;;;5086313;28;20281;-84
2021/12/05 16:37:55;;;;;;;4.22;2.55;;;;;;;;;;5083867;28;20224;-84
2021/12/05 16:40:22;;;;;;;3.78;2.30;;;;;;;;;;5085804;28;20768;-84
2021/12/05 16:42:49;;;;;;;3.17;2.45;;;;;;;;;;5082517;28;20295;-84
2021/12/05 16:45:17;;;;;;;4.35;2.70;;;;;;;;;;5086183;28;20301;-85
2021/12/05 16:47:45;;;;;;;3.30;3.00;;;3.40;99.90;;;;;;5081230;28;20207;-84
2021/12/05 16:50:14;;;;;;;4.07;2.83;;;;;;;;;;5081671;28;20202;-84
2021/12/05 16:52:47;;;;;;;3.17;2.75;;;3.40;99.90;;;;;;5084815;28;20229;-85
2021/12/05 16:55:23;;;;;;;3.38;2.92;;;3.10;99.90;;;;;;5085902;28;20261;-85
2021/12/05 16:57:58;;;;;;;3.35;3.03;;;;;;;;;;5080275;28;20209;-84
2021/12/05 17:00:27;;;;;;;4.38;3.83;;;3.30;99.90;;;;;;5087271;28;20280;-84
2021/12/05 17:02:57;;;;;;;4.25;3.85;;;2.90;99.90;;;;;;5081917;28;20613;-85
2021/12/05 17:05:28;;;;;;;4.57;4.00;;;3.30;99.90;;;;;;5086016;28;20230;-85
2021/12/05 17:08:06;;;;;;;5.88;3.70;;;3.20;99.90;;;;;;5082696;28;20203;-85
2021/12/05 17:10:37;;;;;;;4.15;3.80;;;3.30;99.90;;;;;;5086113;28;20236;-85
2021/12/05 17:13:15;;;;;;;5.35;3.78;;;3.30;99.90;;;;;;5074466;28;20464;-84
2021/12/05 17:15:51;;;;;;;2.90;2.60;;;3.20;99.90;;;;;;5078335;28;20283;-84
2021/12/05 17:18:20;;;;;;;3.70;3.40;;;3.10;99.90;;;;;;5086120;28;20319;-84
2021/12/05 17:20:54;;;;;;;3.97;3.15;;;3.00;99.90;;;;;;5081687;28;20263;-84
2021/12/05 17:23:29;;;;;;;3.53;3.22;;;2.90;99.90;;;;;;5081067;28;20312;-83
2021/12/05 17:26:06;;;;;;;2.95;2.72;;;2.80;99.90;;;;;;5083838;28;20209;-83
2021/12/05 17:28:44;;;;;;;3.50;2.95;;;2.70;99.90;;;;;;5084093;28;20310;-83
2021/12/05 17:31:16;;;;;;;3.60;3.13;;;2.60;99.90;;;;;;5078998;28;20298;-83
2021/12/05 17:33:46;;;;;;;3.75;3.45;;;2.60;99.90;;;;;;5079572;28;20240;-83
2021/12/05 17:36:24;;;;;;;4.15;3.25;;;2.60;99.90;;;;;;5075863;28;20230;-83
2021/12/05 17:38:55;;;;;;;5.10;2.88;;;;;;;;;;5081886;28;20236;-83
2021/12/05 17:41:23;;;;;;;7.55;3.92;;;;;;;;;;5077494;28;20196;-84
2021/12/05 17:43:50;;;;;;;4.45;3.58;;;;;;;;;;5079565;28;20262;-83
2021/12/05 17:46:17;;;;;;;4.43;3.67;;;;;;;;;;5077043;28;20200;-84
2021/12/05 17:48:45;;;;;;;8.88;4.05;;;;;;;;;;5081707;28;20203;-83
2021/12/05 17:51:12;;;;;;;6.25;5.25;;;;;;;;;;5081553;28;20314;-83
2021/12/05 17:53:41;;;;;;;8.10;5.38;;;2.60;99.90;;;;;;5080852;28;21017;-84
2021/12/05 17:56:19;;;;;;;5.20;4.60;;;2.50;99.90;;;;;;5077213;28;20239;-84
2021/12/05 18:04:15;;;;;;;5.00;4.20;;;;;;;;;;5081410;28;20603;-84
2021/12/05 18:06:43;;;;;;;5.22;4.72;;;;;;;;;;5081418;28;20196;-84
2021/12/05 18:09:11;;;;;;;5.10;4.70;;;;;;;;;;5080620;28;20202;-84
2021/12/05 18:11:38;;;;;;;4.93;4.40;;;;;;;;;;5080508;28;20201;-84
2021/12/05 18:14:06;;;;;;;4.70;4.30;;;;;;;;;;5077764;28;20229;-84
2021/12/05 18:16:33;;;;;;;5.88;4.25;;;;;;;;;;5076742;28;20297;-83
2021/12/05 18:19:04;;;;;;;6.45;5.20;;;2.30;99.90;;;;;;5071274;28;20235;-84
2021/12/05 18:21:34;;;;;;;7.45;4.78;;;2.20;99.90;;;;;;5079933;28;20233;-84
2021/12/05 18:24:01;;;;;;;4.65;4.10;;;;;;;;;;5081973;28;20213;-84
2021/12/05 18:26:30;;;;;;;5.63;5.10;;;;;;;;;;5083939;28;20269;-84
2021/12/05 18:28:57;;;;;;;9.95;5.82;;;;;;;;;;5082757;28;20248;-84
2021/12/05 18:31:27;;;;;;;6.95;5.15;;;2.30;99.90;;;;;;5080520;28;20629;-84
2021/12/05 18:33:56;;;;;;;6.38;5.22;;;;;;;;;;5079792;28;20696;-84
2021/12/05 18:36:24;;;;;;;6.97;5.68;;;2.10;99.90;;;;;;5079877;28;20752;-84
2021/12/05 18:38:51;;;;;;;11.75;8.57;;;;;;;;;;5078822;28;20233;-84